HEAR

El Arish International Airport

Airport
ICAO code
HEAR
IATA Code
AAC
Summary
ICAO Region
AFI
ICAO Territory
Location

El Arish, Shamal Sina'

Serving
El Arish
Elevation
121 ft
Coordinates
31° 4' 24" N , 33° 50' 9" E
Metar
HEAR 161200Z 01010KT CAVOK 27/18 Q1014 NOSIG

Runways

Designator Length Width Surface Rops
16/34 3019 45 ASP No/No

Airport map

Aerial View

SKYbrary Partners:

Safety knowledge contributed by: